sensor_id;sensor_type;location;lat;lon;timestamp;pressure;altitude;pressure_sealevel;temperature;humidity
31771;BME280;18343;50.152;8.182;2023-05-09T00:02:28;97721.63;;;16.47;100.00
31771;BME280;18343;50.152;8.182;2023-05-09T00:05:12;97723.72;;;16.45;100.00
31771;BME280;18343;50.152;8.182;2023-05-09T00:07:58;97717.47;;;16.45;100.00
31771;BME280;18343;50.152;8.182;2023-05-09T00:10:45;97718.72;;;16.42;100.00
31771;BME280;18343;50.152;8.182;2023-05-09T00:13:30;97721.69;;;16.41;100.00
31771;BME280;18343;50.152;8.182;2023-05-09T00:16:15;97721.09;;;16.39;100.00
31771;BME280;18343;50.152;8.182;2023-05-09T00:18:59;97717.97;;;16.35;100.00
31771;BME280;18343;50.152;8.182;2023-05-09T00:21:44;97711.13;;;16.33;100.00
31771;BME280;18343;50.152;8.182;2023-05-09T00:24:30;97718.88;;;16.29;100.00
31771;BME280;18343;50.152;8.182;2023-05-09T00:27:16;97715.53;;;16.27;100.00
31771;BME280;18343;50.152;8.182;2023-05-09T00:30:02;97705.97;;;16.24;100.00
31771;BME280;18343;50.152;8.182;2023-05-09T00:32:47;97700.97;;;16.21;100.00
31771;BME280;18343;50.152;8.182;2023-05-09T00:35:32;97703.47;;;16.23;100.00
31771;BME280;18343;50.152;8.182;2023-05-09T00:38:16;97705.34;;;16.22;100.00
31771;BME280;18343;50.152;8.182;2023-05-09T00:41:03;97698.47;;;16.20;100.00
31771;BME280;18343;50.152;8.182;2023-05-09T00:43:49;97698.09;;;16.16;100.00
31771;BME280;18343;50.152;8.182;2023-05-09T00:46:34;97703.38;;;16.11;100.00
31771;BME280;18343;50.152;8.182;2023-05-09T00:49:19;97700.66;;;16.11;100.00
31771;BME280;18343;50.152;8.182;2023-05-09T00:52:04;97703.81;;;16.08;100.00
31771;BME280;18343;50.152;8.182;2023-05-09T00:54:52;97698.81;;;16.05;100.00
31771;BME280;18343;50.152;8.182;2023-05-09T00:57:38;97697.59;;;16.01;100.00
31771;BME280;18343;50.152;8.182;2023-05-09T01:00:23;97694.28;;;15.99;100.00
31771;BME280;18343;50.152;8.182;2023-05-09T01:03:08;97680.50;;;16.01;100.00
31771;BME280;18343;50.152;8.182;2023-05-09T01:06:00;97678.84;;;16.00;100.00
31771;BME280;18343;50.152;8.182;2023-05-09T01:08:56;97665.50;;;15.98;100.00
31771;BME280;18343;50.152;8.182;2023-05-09T01:11:49;97661.72;;;15.99;100.00
31771;BME280;18343;50.152;8.182;2023-05-09T01:14:45;97654.63;;;15.98;100.00
31771;BME280;18343;50.152;8.182;2023-05-09T01:17:40;97661.56;;;15.94;100.00
31771;BME280;18343;50.152;8.182;2023-05-09T01:20:36;97664.47;;;15.93;100.00
31771;BME280;18343;50.152;8.182;2023-05-09T01:23:55;97659.72;;;15.88;100.00
31771;BME280;18343;50.152;8.182;2023-05-09T01:26:45;97658.06;;;15.87;100.00
31771;BME280;18343;50.152;8.182;2023-05-09T01:29:37;97658.06;;;15.87;100.00
31771;BME280;18343;50.152;8.182;2023-05-09T01:32:27;97657.84;;;15.88;100.00
31771;BME280;18343;50.152;8.182;2023-05-09T01:35:13;97643.44;;;15.88;100.00
31771;BME280;18343;50.152;8.182;2023-05-09T01:38:00;97636.75;;;15.90;100.00
31771;BME280;18343;50.152;8.182;2023-05-09T01:40:50;97627.78;;;15.90;100.00
31771;BME280;18343;50.152;8.182;2023-05-09T01:43:38;97631.31;;;15.90;100.00
31771;BME280;18343;50.152;8.182;2023-05-09T01:46:27;97636.53;;;15.92;100.00
31771;BME280;18343;50.152;8.182;2023-05-09T01:49:13;97633.00;;;15.91;100.00
31771;BME280;18343;50.152;8.182;2023-05-09T01:52:02;97640.06;;;15.93;100.00
31771;BME280;18343;50.152;8.182;2023-05-09T01:54:47;97635.91;;;15.90;100.00
31771;BME280;18343;50.152;8.182;2023-05-09T01:57:36;97630.09;;;15.86;100.00
31771;BME280;18343;50.152;8.182;2023-05-09T02:00:25;97629.53;;;15.84;100.00
31771;BME280;18343;50.152;8.182;2023-05-09T02:03:12;97634.16;;;15.77;100.00
31771;BME280;18343;50.152;8.182;2023-05-09T02:05:58;97636.47;;;15.74;100.00
31771;BME280;18343;50.152;8.182;2023-05-09T02:08:43;97630.44;;;15.72;100.00
31771;BME280;18343;50.152;8.182;2023-05-09T02:11:29;97644.66;;;15.67;100.00
31771;BME280;18343;50.152;8.182;2023-05-09T02:14:14;97638.84;;;15.64;100.00
31771;BME280;18343;50.152;8.182;2023-05-09T02:17:00;97640.09;;;15.61;100.00
31771;BME280;18343;50.152;8.182;2023-05-09T02:19:46;97646.00;;;15.58;100.00
31771;BME280;18343;50.152;8.182;2023-05-09T02:22:31;97628.44;;;15.61;100.00
31771;BME280;18343;50.152;8.182;2023-05-09T02:25:16;97630.09;;;15.62;100.00
31771;BME280;18343;50.152;8.182;2023-05-09T02:28:01;97640.50;;;15.65;100.00
31771;BME280;18343;50.152;8.182;2023-05-09T02:30:49;97631.94;;;15.68;100.00
31771;BME280;18343;50.152;8.182;2023-05-09T02:33:36;97632.31;;;15.71;100.00
31771;BME280;18343;50.152;8.182;2023-05-09T02:36:23;97620.00;;;15.75;100.00
31771;BME280;18343;50.152;8.182;2023-05-09T02:39:08;97619.56;;;15.78;100.00
31771;BME280;18343;50.152;8.182;2023-05-09T02:41:54;97622.28;;;15.78;100.00
31771;BME280;18343;50.152;8.182;2023-05-09T02:44:40;97617.91;;;15.77;100.00
31771;BME280;18343;50.152;8.182;2023-05-09T02:47:25;97614.97;;;15.79;100.00
31771;BME280;18343;50.152;8.182;2023-05-09T02:50:11;97613.31;;;15.78;100.00
31771;BME280;18343;50.152;8.182;2023-05-09T02:53:14;97606.25;;;15.70;100.00
31771;BME280;18343;50.152;8.182;2023-05-09T02:55:59;97607.97;;;15.65;100.00
31771;BME280;18343;50.152;8.182;2023-05-09T02:58:45;97599.66;;;15.60;100.00
31771;BME280;18343;50.152;8.182;2023-05-09T03:01:29;97607.00;;;15.59;100.00
31771;BME280;18343;50.152;8.182;2023-05-09T03:04:14;97592.41;;;15.53;100.00
31771;BME280;18343;50.152;8.182;2023-05-09T03:07:00;97593.91;;;15.49;100.00
31771;BME280;18343;50.152;8.182;2023-05-09T03:09:49;97592.66;;;15.45;100.00
31771;BME280;18343;50.152;8.182;2023-05-09T03:12:34;97593.09;;;15.42;100.00
31771;BME280;18343;50.152;8.182;2023-05-09T03:15:19;97588.94;;;15.40;100.00
31771;BME280;18343;50.152;8.182;2023-05-09T03:18:04;97592.50;;;15.40;100.00
31771;BME280;18343;50.152;8.182;2023-05-09T03:20:48;97593.94;;;15.43;100.00
31771;BME280;18343;50.152;8.182;2023-05-09T03:23:33;97601.22;;;15.42;100.00
31771;BME280;18343;50.152;8.182;2023-05-09T03:26:20;97594.09;;;15.48;100.00
31771;BME280;18343;50.152;8.182;2023-05-09T03:29:04;97584.31;;;15.47;100.00
31771;BME280;18343;50.152;8.182;2023-05-09T03:31:48;97582.03;;;15.44;100.00
31771;BME280;18343;50.152;8.182;2023-05-09T03:34:34;97584.34;;;15.40;100.00
31771;BME280;18343;50.152;8.182;2023-05-09T03:37:20;97578.94;;;15.40;100.00
31771;BME280;18343;50.152;8.182;2023-05-09T03:40:08;97573.75;;;15.39;100.00
31771;BME280;18343;50.152;8.182;2023-05-09T03:42:54;97572.28;;;15.36;100.00
31771;BME280;18343;50.152;8.182;2023-05-09T03:45:38;97572.91;;;15.38;100.00
31771;BME280;18343;50.152;8.182;2023-05-09T03:48:23;97564.56;;;15.40;100.00
31771;BME280;18343;50.152;8.182;2023-05-09T03:51:07;97559.75;;;15.42;100.00
31771;BME280;18343;50.152;8.182;2023-05-09T03:53:52;97556.66;;;15.38;100.00
31771;BME280;18343;50.152;8.182;2023-05-09T03:56:37;97559.56;;;15.37;100.00
31771;BME280;18343;50.152;8.182;2023-05-09T03:59:23;97563.34;;;15.36;100.00
31771;BME280;18343;50.152;8.182;2023-05-09T04:02:08;97556.25;;;15.35;100.00
31771;BME280;18343;50.152;8.182;2023-05-09T04:04:53;97564.16;;;15.36;100.00
31771;BME280;18343;50.152;8.182;2023-05-09T04:07:38;97563.94;;;15.38;100.00
31771;BME280;18343;50.152;8.182;2023-05-09T04:10:23;97564.16;;;15.36;100.00
31771;BME280;18343;50.152;8.182;2023-05-09T04:13:07;97573.22;;;15.23;100.00
31771;BME280;18343;50.152;8.182;2023-05-09T04:15:53;97572.00;;;15.19;100.00
31771;BME280;18343;50.152;8.182;2023-05-09T04:18:37;97571.13;;;15.26;100.00
31771;BME280;18343;50.152;8.182;2023-05-09T04:21:22;97560.91;;;15.28;100.00
31771;BME280;18343;50.152;8.182;2023-05-09T04:24:07;97562.13;;;15.32;100.00
31771;BME280;18343;50.152;8.182;2023-05-09T04:26:51;97558.97;;;15.35;100.00
31771;BME280;18343;50.152;8.182;2023-05-09T04:29:36;97571.03;;;15.39;100.00
31771;BME280;18343;50.152;8.182;2023-05-09T04:32:22;97564.75;;;15.45;100.00
31771;BME280;18343;50.152;8.182;2023-05-09T04:35:08;97563.25;;;15.49;100.00
31771;BME280;18343;50.152;8.182;2023-05-09T04:37:53;97560.94;;;15.52;100.00
31771;BME280;18343;50.152;8.182;2023-05-09T04:40:38;97559.47;;;15.56;100.00
31771;BME280;18343;50.152;8.182;2023-05-09T04:43:23;97556.69;;;15.63;100.00
31771;BME280;18343;50.152;8.182;2023-05-09T04:46:07;97552.69;;;15.66;100.00
31771;BME280;18343;50.152;8.182;2023-05-09T04:48:53;97549.94;;;15.72;100.00
31771;BME280;18343;50.152;8.182;2023-05-09T04:51:38;97542.41;;;15.74;100.00
31771;BME280;18343;50.152;8.182;2023-05-09T04:54:23;97541.38;;;15.75;100.00
31771;BME280;18343;50.152;8.182;2023-05-09T04:57:07;97543.03;;;15.76;100.00
31771;BME280;18343;50.152;8.182;2023-05-09T04:59:52;97534.44;;;15.79;100.00
31771;BME280;18343;50.152;8.182;2023-05-09T05:02:39;97536.16;;;15.74;100.00
31771;BME280;18343;50.152;8.182;2023-05-09T05:05:25;97535.09;;;15.75;100.00
31771;BME280;18343;50.152;8.182;2023-05-09T05:08:10;97535.66;;;15.83;100.00
31771;BME280;18343;50.152;8.182;2023-05-09T05:10:55;97527.44;;;15.90;100.00
31771;BME280;18343;50.152;8.182;2023-05-09T05:13:40;97528.44;;;15.96;100.00
31771;BME280;18343;50.152;8.182;2023-05-09T05:16:25;97522.56;;;15.99;100.00
31771;BME280;18343;50.152;8.182;2023-05-09T05:19:09;97524.06;;;15.95;100.00
31771;BME280;18343;50.152;8.182;2023-05-09T05:21:55;97523.38;;;15.99;100.00
31771;BME280;18343;50.152;8.182;2023-05-09T05:24:40;97522.50;;;16.05;100.00
31771;BME280;18343;50.152;8.182;2023-05-09T05:27:25;97519.94;;;16.10;100.00
31771;BME280;18343;50.152;8.182;2023-05-09T05:30:10;97507.56;;;16.14;100.00
31771;BME280;18343;50.152;8.182;2023-05-09T05:32:56;97516.22;;;16.23;100.00
31771;BME280;18343;50.152;8.182;2023-05-09T05:35:40;97511.19;;;16.27;100.00
31771;BME280;18343;50.152;8.182;2023-05-09T05:38:26;97505.53;;;16.28;100.00
31771;BME280;18343;50.152;8.182;2023-05-09T05:41:11;97507.63;;;16.26;100.00
31771;BME280;18343;50.152;8.182;2023-05-09T05:43:56;97505.31;;;16.30;100.00
31771;BME280;18343;50.152;8.182;2023-05-09T05:46:40;97510.06;;;16.34;100.00
31771;BME280;18343;50.152;8.182;2023-05-09T05:49:25;97503.94;;;16.39;100.00
31771;BME280;18343;50.152;8.182;2023-05-09T05:52:11;97500.03;;;16.35;100.00
31771;BME280;18343;50.152;8.182;2023-05-09T05:54:58;97504.28;;;16.12;100.00
31771;BME280;18343;50.152;8.182;2023-05-09T05:57:42;97495.06;;;16.13;100.00
31771;BME280;18343;50.152;8.182;2023-05-09T06:00:27;97498.66;;;16.25;100.00
31771;BME280;18343;50.152;8.182;2023-05-09T06:03:12;97500.41;;;16.38;100.00
31771;BME280;18343;50.152;8.182;2023-05-09T06:05:57;97493.13;;;16.50;100.00
31771;BME280;18343;50.152;8.182;2023-05-09T06:08:44;97489.72;;;16.55;100.00
31771;BME280;18343;50.152;8.182;2023-05-09T06:11:30;97492.00;;;16.58;100.00
31771;BME280;18343;50.152;8.182;2023-05-09T06:14:15;97496.75;;;16.63;100.00
31771;BME280;18343;50.152;8.182;2023-05-09T06:17:01;97499.69;;;16.61;100.00
31771;BME280;18343;50.152;8.182;2023-05-09T06:19:46;97495.53;;;16.58;100.00
31771;BME280;18343;50.152;8.182;2023-05-09T06:22:31;97502.41;;;16.61;100.00
31771;BME280;18343;50.152;8.182;2023-05-09T06:25:16;97494.09;;;16.56;100.00
31771;BME280;18343;50.152;8.182;2023-05-09T06:28:02;97486.34;;;16.59;100.00
31771;BME280;18343;50.152;8.182;2023-05-09T06:30:47;97488.00;;;16.61;100.00
31771;BME280;18343;50.152;8.182;2023-05-09T06:33:32;97492.00;;;16.58;100.00
31771;BME280;18343;50.152;8.182;2023-05-09T06:36:17;97484.06;;;16.56;100.00
31771;BME280;18343;50.152;8.182;2023-05-09T06:39:02;97493.13;;;16.50;100.00
31771;BME280;18343;50.152;8.182;2023-05-09T06:41:49;97485.81;;;16.51;100.00
31771;BME280;18343;50.152;8.182;2023-05-09T06:44:35;97485.00;;;16.50;100.00
31771;BME280;18343;50.152;8.182;2023-05-09T06:47:19;97487.56;;;16.45;100.00
31771;BME280;18343;50.152;8.182;2023-05-09T06:50:07;97482.59;;;16.42;100.00
31771;BME280;18343;50.152;8.182;2023-05-09T06:52:52;97466.91;;;16.44;100.00
31771;BME280;18343;50.152;8.182;2023-05-09T06:55:36;97470.56;;;16.38;100.00
31771;BME280;18343;50.152;8.182;2023-05-09T06:58:21;97459.69;;;16.38;100.00
31771;BME280;18343;50.152;8.182;2023-05-09T07:01:07;97452.97;;;16.41;100.00
31771;BME280;18343;50.152;8.182;2023-05-09T07:03:52;97445.31;;;16.49;100.00
31771;BME280;18343;50.152;8.182;2023-05-09T07:06:38;97451.34;;;16.51;100.00
31771;BME280;18343;50.152;8.182;2023-05-09T07:09:23;97455.28;;;16.55;100.00
31771;BME280;18343;50.152;8.182;2023-05-09T07:12:07;97453.16;;;16.57;100.00
31771;BME280;18343;50.152;8.182;2023-05-09T07:14:52;97452.56;;;16.55;100.00
31771;BME280;18343;50.152;8.182;2023-05-09T07:17:38;97444.97;;;16.46;100.00
31771;BME280;18343;50.152;8.182;2023-05-09T07:20:23;97449.09;;;16.48;100.00
31771;BME280;18343;50.152;8.182;2023-05-09T07:23:07;97444.41;;;16.55;100.00
31771;BME280;18343;50.152;8.182;2023-05-09T07:25:57;97437.31;;;16.54;100.00
31771;BME280;18343;50.152;8.182;2023-05-09T07:28:42;97432.50;;;16.56;100.00
31771;BME280;18343;50.152;8.182;2023-05-09T07:31:26;97433.03;;;16.65;100.00
31771;BME280;18343;50.152;8.182;2023-05-09T07:34:14;97424.66;;;16.67;100.00
31771;BME280;18343;50.152;8.182;2023-05-09T07:37:01;97422.19;;;16.65;100.00
31771;BME280;18343;50.152;8.182;2023-05-09T07:39:45;97433.97;;;16.71;100.00
31771;BME280;18343;50.152;8.182;2023-05-09T07:42:30;97427.16;;;16.68;100.00
31771;BME280;18343;50.152;8.182;2023-05-09T07:45:15;97423.72;;;16.73;100.00
31771;BME280;18343;50.152;8.182;2023-05-09T07:48:01;97417.22;;;16.74;100.00
31771;BME280;18343;50.152;8.182;2023-05-09T07:50:47;97416.63;;;16.72;100.00
31771;BME280;18343;50.152;8.182;2023-05-09T07:53:32;97408.63;;;16.77;100.00
31771;BME280;18343;50.152;8.182;2023-05-09T07:56:16;97406.97;;;16.76;100.00
31771;BME280;18343;50.152;8.182;2023-05-09T07:59:03;97406.72;;;16.77;100.00
31771;BME280;18343;50.152;8.182;2023-05-09T08:01:48;97399.63;;;16.76;100.00
31771;BME280;18343;50.152;8.182;2023-05-09T08:04:33;97392.31;;;16.77;100.00
31771;BME280;18343;50.152;8.182;2023-05-09T08:07:19;97396.31;;;16.74;100.00
31771;BME280;18343;50.152;8.182;2023-05-09T08:10:05;97386.88;;;16.77;100.00
31771;BME280;18343;50.152;8.182;2023-05-09T08:12:50;97374.38;;;16.76;100.00
31771;BME280;18343;50.152;8.182;2023-05-09T08:15:35;97381.47;;;16.77;100.00
31771;BME280;18343;50.152;8.182;2023-05-09T08:18:21;97365.28;;;16.82;100.00
31771;BME280;18343;50.152;8.182;2023-05-09T08:21:05;97360.59;;;16.89;100.00
31771;BME280;18343;50.152;8.182;2023-05-09T08:23:52;97368.63;;;16.96;100.00
31771;BME280;18343;50.152;8.182;2023-05-09T08:26:36;97369.34;;;16.91;100.00
31771;BME280;18343;50.152;8.182;2023-05-09T08:29:21;97360.81;;;16.99;100.00
31771;BME280;18343;50.152;8.182;2023-05-09T08:32:06;97359.41;;;17.08;100.00
31771;BME280;18343;50.152;8.182;2023-05-09T08:34:51;97355.16;;;17.24;100.00
31771;BME280;18343;50.152;8.182;2023-05-09T08:37:35;97355.28;;;17.41;100.00
31771;BME280;18343;50.152;8.182;2023-05-09T08:40:23;97352.28;;;17.54;100.00
31771;BME280;18343;50.152;8.182;2023-05-09T08:43:09;97348.75;;;17.65;100.00
31771;BME280;18343;50.152;8.182;2023-05-09T08:45:58;97352.06;;;17.67;100.00
31771;BME280;18343;50.152;8.182;2023-05-09T08:48:43;97345.66;;;17.62;100.00
31771;BME280;18343;50.152;8.182;2023-05-09T08:51:28;97346.03;;;17.65;100.00
31771;BME280;18343;50.152;8.182;2023-05-09T08:54:14;97345.50;;;17.80;100.00
31771;BME280;18343;50.152;8.182;2023-05-09T08:57:00;97338.88;;;17.87;100.00
31771;BME280;18343;50.152;8.182;2023-05-09T08:59:45;97339.94;;;17.86;100.00
31771;BME280;18343;50.152;8.182;2023-05-09T09:02:31;97341.47;;;17.94;100.00
31771;BME280;18343;50.152;8.182;2023-05-09T09:05:17;97343.84;;;17.79;100.00
31771;BME280;18343;50.152;8.182;2023-05-09T09:08:03;97344.50;;;17.69;100.00
31771;BME280;18343;50.152;8.182;2023-05-09T09:10:50;97339.03;;;17.57;100.00
31771;BME280;18343;50.152;8.182;2023-05-09T09:13:39;97348.72;;;17.53;100.00
31771;BME280;18343;50.152;8.182;2023-05-09T09:16:25;97338.13;;;17.40;100.00
31771;BME280;18343;50.152;8.182;2023-05-09T09:19:15;97339.66;;;17.36;100.00
31771;BME280;18343;50.152;8.182;2023-05-09T09:22:03;97346.41;;;17.34;100.00
31771;BME280;18343;50.152;8.182;2023-05-09T09:24:49;97343.34;;;17.30;100.00
31771;BME280;18343;50.152;8.182;2023-05-09T09:27:36;97332.09;;;17.26;100.00
31771;BME280;18343;50.152;8.182;2023-05-09T09:30:24;97322.06;;;17.27;100.00
31771;BME280;18343;50.152;8.182;2023-05-09T09:33:08;97329.84;;;17.23;100.00
31771;BME280;18343;50.152;8.182;2023-05-09T09:35:55;97323.03;;;17.21;100.00
31771;BME280;18343;50.152;8.182;2023-05-09T09:38:41;97316.28;;;17.23;100.00
31771;BME280;18343;50.152;8.182;2023-05-09T09:41:33;97311.94;;;17.22;100.00
31771;BME280;18343;50.152;8.182;2023-05-09T09:44:19;97310.38;;;17.15;100.00
31771;BME280;18343;50.152;8.182;2023-05-09T09:47:09;97305.06;;;17.08;100.00
31771;BME280;18343;50.152;8.182;2023-05-09T09:49:53;97306.13;;;17.07;100.00
31771;BME280;18343;50.152;8.182;2023-05-09T09:52:43;97300.22;;;17.10;100.00
31771;BME280;18343;50.152;8.182;2023-05-09T09:55:28;97293.03;;;17.04;100.00
31771;BME280;18343;50.152;8.182;2023-05-09T09:58:17;97293.03;;;17.04;100.00
31771;BME280;18343;50.152;8.182;2023-05-09T10:01:05;97288.75;;;16.97;100.00
31771;BME280;18343;50.152;8.182;2023-05-09T10:03:53;97294.09;;;16.91;100.00
31771;BME280;18343;50.152;8.182;2023-05-09T10:06:39;97290.44;;;16.86;100.00
31771;BME280;18343;50.152;8.182;2023-05-09T10:09:35;97284.19;;;16.85;100.00
31771;BME280;18343;50.152;8.182;2023-05-09T10:12:20;97282.41;;;16.91;100.00
31771;BME280;18343;50.152;8.182;2023-05-09T10:15:07;97278.16;;;16.95;100.00
31771;BME280;18343;50.152;8.182;2023-05-09T10:17:55;97266.78;;;16.98;100.00
31771;BME280;18343;50.152;8.182;2023-05-09T10:20:43;97265.97;;;16.98;100.00
31771;BME280;18343;50.152;8.182;2023-05-09T10:23:29;97260.31;;;16.99;100.00
31771;BME280;18343;50.152;8.182;2023-05-09T10:26:22;97257.47;;;17.06;100.00
31771;BME280;18343;50.152;8.182;2023-05-09T10:29:09;97256.16;;;17.08;100.00
31771;BME280;18343;50.152;8.182;2023-05-09T10:31:59;97255.22;;;17.14;100.00
31771;BME280;18343;50.152;8.182;2023-05-09T10:34:56;97249.19;;;17.12;100.00
31771;BME280;18343;50.152;8.182;2023-05-09T10:37:43;97252.03;;;17.06;100.00
31771;BME280;18343;50.152;8.182;2023-05-09T10:40:30;97244.94;;;17.05;100.00
31771;BME280;18343;50.152;8.182;2023-05-09T10:43:15;97237.38;;;17.07;100.00
31771;BME280;18343;50.152;8.182;2023-05-09T10:46:01;97234.06;;;17.05;100.00
31771;BME280;18343;50.152;8.182;2023-05-09T10:48:47;97229.81;;;17.20;100.00
31771;BME280;18343;50.152;8.182;2023-05-09T10:51:33;97230.13;;;17.36;100.00
31771;BME280;18343;50.152;8.182;2023-05-09T10:54:29;97224.91;;;17.34;100.00
31771;BME280;18343;50.152;8.182;2023-05-09T10:57:17;97220.66;;;17.38;100.00
31771;BME280;18343;50.152;8.182;2023-05-09T11:00:04;97221.94;;;17.47;100.00
31771;BME280;18343;50.152;8.182;2023-05-09T11:03:06;97214.78;;;17.58;100.00
31771;BME280;18343;50.152;8.182;2023-05-09T11:05:52;97220.47;;;17.68;100.00
31771;BME280;18343;50.152;8.182;2023-05-09T11:08:41;97199.38;;;17.75;100.00
31771;BME280;18343;50.152;8.182;2023-05-09T11:11:28;97199.78;;;17.84;100.00
31771;BME280;18343;50.152;8.182;2023-05-09T11:14:29;97191.38;;;17.85;100.00
31771;BME280;18343;50.152;8.182;2023-05-09T11:17:27;97193.63;;;17.88;100.00
31771;BME280;18343;50.152;8.182;2023-05-09T11:20:12;97186.13;;;17.96;100.00
31771;BME280;18343;50.152;8.182;2023-05-09T11:22:58;97187.88;;;18.02;100.00
31771;BME280;18343;50.152;8.182;2023-05-09T11:25:45;97181.53;;;17.96;100.00
31771;BME280;18343;50.152;8.182;2023-05-09T11:28:33;97178.38;;;17.87;100.00
31771;BME280;18343;50.152;8.182;2023-05-09T11:31:18;97169.56;;;17.97;100.00
31771;BME280;18343;50.152;8.182;2023-05-09T11:34:04;97158.19;;;18.17;100.00
31771;BME280;18343;50.152;8.182;2023-05-09T11:36:49;97153.25;;;18.31;100.00
31771;BME280;18343;50.152;8.182;2023-05-09T11:39:34;97155.78;;;18.37;100.00
31771;BME280;18343;50.152;8.182;2023-05-09T11:42:22;97145.63;;;18.49;100.00
31771;BME280;18343;50.152;8.182;2023-05-09T11:45:09;97143.09;;;18.59;100.00
31771;BME280;18343;50.152;8.182;2023-05-09T11:47:56;97144.72;;;18.60;100.00
31771;BME280;18343;50.152;8.182;2023-05-09T11:50:41;97143.63;;;18.62;100.00
31771;BME280;18343;50.152;8.182;2023-05-09T11:53:28;97144.38;;;18.57;100.00
31771;BME280;18343;50.152;8.182;2023-05-09T11:56:13;97139.34;;;18.49;100.00
31771;BME280;18343;50.152;8.182;2023-05-09T11:59:02;97134.50;;;18.51;100.00
31771;BME280;18343;50.152;8.182;2023-05-09T12:01:54;97124.41;;;18.51;100.00
31771;BME280;18343;50.152;8.182;2023-05-09T12:04:40;97120.44;;;18.59;100.00
31771;BME280;18343;50.152;8.182;2023-05-09T12:07:25;97119.31;;;18.55;100.00
31771;BME280;18343;50.152;8.182;2023-05-09T12:10:12;97114.94;;;18.54;100.00
31771;BME280;18343;50.152;8.182;2023-05-09T12:12:58;97112.47;;;18.52;100.00
31771;BME280;18343;50.152;8.182;2023-05-09T12:15:43;97107.44;;;18.44;100.00
31771;BME280;18343;50.152;8.182;2023-05-09T12:18:29;97101.81;;;18.51;100.00
31771;BME280;18343;50.152;8.182;2023-05-09T12:21:14;97100.47;;;18.53;100.00
31771;BME280;18343;50.152;8.182;2023-05-09T12:23:59;97096.69;;;18.54;100.00
31771;BME280;18343;50.152;8.182;2023-05-09T12:26:44;97089.75;;;18.64;100.00
31771;BME280;18343;50.152;8.182;2023-05-09T12:29:29;97083.69;;;18.78;100.00
31771;BME280;18343;50.152;8.182;2023-05-09T12:32:15;97075.63;;;18.88;100.00
31771;BME280;18343;50.152;8.182;2023-05-09T12:35:02;97073.28;;;18.97;100.00
31771;BME280;18343;50.152;8.182;2023-05-09T12:37:54;97068.13;;;19.01;100.00
31771;BME280;18343;50.152;8.182;2023-05-09T12:40:40;97069.47;;;18.98;100.00
31771;BME280;18343;50.152;8.182;2023-05-09T12:43:25;97067.31;;;19.00;100.00
31771;BME280;18343;50.152;8.182;2023-05-09T12:46:10;97056.41;;;19.00;100.00
31771;BME280;18343;50.152;8.182;2023-05-09T12:48:54;97048.44;;;18.93;100.00
31771;BME280;18343;50.152;8.182;2023-05-09T12:51:47;97040.25;;;18.93;100.00
31771;BME280;18343;50.152;8.182;2023-05-09T12:54:33;97044.88;;;18.93;100.00
31771;BME280;18343;50.152;8.182;2023-05-09T12:57:24;97042.97;;;18.93;100.00
31771;BME280;18343;50.152;8.182;2023-05-09T13:00:10;97040.75;;;18.90;100.00
31771;BME280;18343;50.152;8.182;2023-05-09T13:02:55;97036.66;;;18.88;100.00
31771;BME280;18343;50.152;8.182;2023-05-09T13:05:39;97032.34;;;18.92;100.00
31771;BME280;18343;50.152;8.182;2023-05-09T13:08:26;97031.50;;;18.91;100.00
31771;BME280;18343;50.152;8.182;2023-05-09T13:11:12;97036.53;;;18.78;100.00
31771;BME280;18343;50.152;8.182;2023-05-09T13:13:57;97021.59;;;18.80;100.00
31771;BME280;18343;50.152;8.182;2023-05-09T13:16:43;97021.91;;;18.84;100.00
31771;BME280;18343;50.152;8.182;2023-05-09T13:19:28;97016.25;;;18.90;100.00
31771;BME280;18343;50.152;8.182;2023-05-09T13:22:12;97014.91;;;18.93;100.00
31771;BME280;18343;50.152;8.182;2023-05-09T13:24:58;97010.09;;;19.00;100.00
31771;BME280;18343;50.152;8.182;2023-05-09T13:27:43;97010.59;;;18.97;100.00
31771;BME280;18343;50.152;8.182;2023-05-09T13:30:28;97001.09;;;19.00;100.00
31771;BME280;18343;50.152;8.182;2023-05-09T13:33:12;96999.19;;;19.00;100.00
31771;BME280;18343;50.152;8.182;2023-05-09T13:35:57;96994.25;;;18.97;100.00
31771;BME280;18343;50.152;8.182;2023-05-09T13:38:42;96991.63;;;19.07;100.00
31771;BME280;18343;50.152;8.182;2023-05-09T13:41:29;96990.63;;;18.91;100.00
31771;BME280;18343;50.152;8.182;2023-05-09T13:44:13;96988.28;;;19.00;100.00
31771;BME280;18343;50.152;8.182;2023-05-09T13:46:58;96987.97;;;18.97;100.00
31771;BME280;18343;50.152;8.182;2023-05-09T13:49:43;96985.66;;;18.83;100.00
31771;BME280;18343;50.152;8.182;2023-05-09T13:52:28;96983.44;;;18.80;100.00
31771;BME280;18343;50.152;8.182;2023-05-09T13:55:12;96979.78;;;18.70;100.00
31771;BME280;18343;50.152;8.182;2023-05-09T13:57:59;96980.78;;;18.85;100.00
31771;BME280;18343;50.152;8.182;2023-05-09T14:00:43;96971.53;;;18.86;100.00
31771;BME280;18343;50.152;8.182;2023-05-09T14:03:28;96963.06;;;18.83;100.00
31771;BME280;18343;50.152;8.182;2023-05-09T14:06:12;96959.25;;;18.84;100.00
31771;BME280;18343;50.152;8.182;2023-05-09T14:08:57;96957.34;;;18.84;100.00
31771;BME280;18343;50.152;8.182;2023-05-09T14:11:42;96951.06;;;18.84;100.00
31771;BME280;18343;50.152;8.182;2023-05-09T14:14:28;96947.53;;;18.83;100.00
31771;BME280;18343;50.152;8.182;2023-05-09T14:17:12;96944.25;;;18.81;100.00
31771;BME280;18343;50.152;8.182;2023-05-09T14:19:57;96941.81;;;18.85;100.00
31771;BME280;18343;50.152;8.182;2023-05-09T14:22:42;96936.31;;;18.80;100.00
31771;BME280;18343;50.152;8.182;2023-05-09T14:25:27;96940.19;;;18.84;100.00
31771;BME280;18343;50.152;8.182;2023-05-09T14:28:13;96927.41;;;18.89;100.00
31771;BME280;18343;50.152;8.182;2023-05-09T14:31:18;96921.44;;;18.92;100.00